Aérodrome :
LOGIN :

S'inscrire | Disclaimer

   EN    FR    IT 

 










Légende :    VFR   VFR Marginal   IFR   IFR Intensif   IFR Très Intensif
Visi : 
Plafond : 
>= 8 km
>= 3000ft
5 à 8 km
1000 à 3000 ft
1500m à 5 km
500 à 1000 ft
800 à 1500m
200 à 500 ft
< 800m
< 200 ft
Symboles :   Orages  Brouillard  Fortes neiges  Fortes précipitations  Vent > 20 kt
SIGMETs :   Divers  Orages  Givrage  Turbulence  Onde Orograph.  Cendres Volcan.






- Altitude de l'aérodrome : 512 ft
- Code IATA : URO


LFOP - Rouen Vallée de Seine

DERNIER METAR :
  • 171700Z AUTO 24009KT CAVOK 06/01 Q1020 TEMPO 27020G30KT 3000 SHRA BKN015TCU

METARs EXPIRÉS :
  • 171630Z AUTO 26012G26KT 230V290 9999 BKN031 BKN084 BKN110 07/02 Q1020 TEMPO 3000 SHRA BKN015TCU
  • 171600Z AUTO 25007KT CAVOK 06/03 Q1020 TEMPO 27020G30KT 3000 SHRA BKN015TCU
  • 171530Z AUTO 27009KT 9999 FEW025/// BKN094/// ///TCU 07/03 Q1019 TEMPO 27020G30KT 3000 SHRA
  • 171500Z AUTO 28013KT 240V320 9999 -RA FEW023/// BKN030/// BKN038/// ///TCU 06/04 Q1019 TEMPO 27020G30KT 3000 SHRA
  • 171430Z AUTO 29015KT 250V320 9999 BKN031 BKN038 BKN049 09/03 Q1018 TEMPO 27020G30KT 3000 SHRA BKN015TCU

TAF TAF LFOP
Valide du 17 à 12h jusqu'au 18 à 12h UTC


171100Z 1712/1812 25012KT 9999 SCT025
TEMPO 1713/1723 27020G30KT 3000 SHRA BKN015TCU
TEMPO 1723/1804 4000 SHRA
BECMG 1800/1803 VRB02KT
ATIS : +33 2 35 80 80 34
Météo : +33 2 32 86 52 80



MET'MAP, la Météo Aéronautique d'un coup d'oeil ! - Copyright ORBIFLY Décembre 2007 - Disclaimer

ORBIFLY MET'MAP TEAM :

Programmation & Développement : Alexandra Zaïnal
Sur une idée originale de : Baudouin d'Aumeries
Assistance à la programmation : Marc-Olivier Méhu
Soutien technique & logistique : Manuel Goepfert

Contact : metmap@orbifly.com




SOURCES & CREDITS :

   NOAA